Lerona, WV (25971)

11:57 PM EDT on September 04, 2015 (GMT -0400)
Pine Cone Lane | | Change Station
CLOSE
Current Station
Personal Weather Station
Location: Lerona, WV
Elevation: 2425 ft
Nearby Weather Stations

Elev 2425 ft 37.51 °N, 80.99 °W | Updated 3 minutes ago

Clear
Clear
62.6 °F
Feels Like 62.6 °F
N
0.0
Wind Variable Wind from South

Today
High -- | Low -- °F
--% Chance of Precip.
Yesterday
High -- | Low -- °F
Precip. -- in
6:56 AM 7:48 PM
Waning Gibbous, 53% visible
Pressure 30.10 in
Visibility 8.0 miles
Clouds Clear
Dew Point 60 °F
Humidity 92%
Rainfall 0.00 in
Snow Depth Not available.
UV 0 out of 12
Pollen 9.50 out of 12
Air Quality Not available.
Flu Activity Not available.
METAR KBLF 050352Z AUTO 10004KT 8SM CLR 20/17 A3021 RMK AO2 SLP191 T02000172
Pressure 30.10 in
Visibility 8.0 miles
Clouds Clear
Dew Point 60 °F
Humidity 92%
Rainfall 0.00 in
Snow Depth Not available.
UV 0 out of 12
Pollen 9.50 out of 12
Air Quality Not available.
Flu Activity Not available.
METAR KBLF 050352Z AUTO 10004KT 8SM CLR 20/17 A3021 RMK AO2 SLP191 T02000172

10-Day Weather Forecast

×

Almanac

Astronomy

Sep. 04, 2015 Rise Set
Actual Time
Civil Twilight
Nautical Twilight
Astronomical Twilight
Moon
Length of Visible Light
Length of Day
Tomorrow will be .
, % of the Moon is Illuminated

Today's Extremes

State Highs State Lows

Community

WunderPhotos

Upload Photos

1,852,408 photos uploaded!

WunderBlogs® & News

Nearby

Air Quality

  Air Quality AQ Index Pollutant
Not available.

Snow Depth

Station Depth Elevation

Earthquake Activity

City Distance Mag. Time & Date
Minimum magnitude displayed is 2.5.

Coastal Water Temperatures

Place Temperature

Stations

Nearby Weather Stations

Station Location Temp. Windchill Dew Point Humidity Wind Precip. Elev Updated Type